AAL7 KDFW-PHOG
Flight info
| Callsign | AAL7 |
|---|---|
| Flight time | N/A |
| Altitude | 34000 |
| Route | HUDAD2 HUDAD PNH DVC/N0486F360 IBSKI MLF RPARK MOD BRINY KO42C BAART R464 BILLO/N0477F380 R464 BITTA LNDHY1 |
| Aircraft | B77W/H-SDE1E2E3FGHIJ2J3J4J5M1RWXY/LB1D1 |
Departure
| Time | 2026-05-01 14:25 |
|---|---|
| Airport | Dallas Fort Worth International Airport (KDFW) |
Arrival
| Time | N/A |
|---|---|
| Airport | Kahului International Airport (PHOG) |
| Time | Latitude | Longitude | Altitude | Speed | Heading |
|---|---|---|---|---|---|
| 2026-05-01 14:24 | 33.06988 | -97.23603 | 10347 ft | 296 kts | 259° |
| 2026-05-01 14:25 | 33.06586 | -97.26042 | 10734 ft | 311 kts | 260° |
| 2026-05-01 14:25 | 33.06162 | -97.28657 | 10918 ft | 331 kts | 260° |
| 2026-05-01 14:25 | 33.05713 | -97.31446 | 11121 ft | 353 kts | 260° |
| 2026-05-01 14:25 | 33.05242 | -97.34391 | 11606 ft | 366 kts | 260° |
| 2026-05-01 14:26 | 33.04762 | -97.37391 | 12375 ft | 369 kts | 260° |
| 2026-05-01 14:26 | 33.03809 | -97.43351 | 14393 ft | 365 kts | 259° |
| 2026-05-01 14:26 | 33.03336 | -97.46312 | 15469 ft | 361 kts | 259° |
| 2026-05-01 14:27 | 33.02869 | -97.49229 | 16518 ft | 357 kts | 259° |
| 2026-05-01 14:27 | 33.02404 | -97.52125 | 17463 ft | 355 kts | 259° |
| 2026-05-01 14:27 | 33.01943 | -97.55001 | 18429 ft | 352 kts | 258° |
| 2026-05-01 14:28 | 33.01021 | -97.60750 | 19902 ft | 358 kts | 258° |
| 2026-05-01 14:28 | 33.00547 | -97.63689 | 20498 ft | 363 kts | 258° |
| 2026-05-01 14:28 | 33.00068 | -97.66660 | 21125 ft | 366 kts | 258° |
| 2026-05-01 14:28 | 32.99584 | -97.69657 | 21691 ft | 368 kts | 259° |
| 2026-05-01 14:29 | 32.99437 | -97.72723 | 22030 ft | 378 kts | 271° |
| 2026-05-01 14:29 | 32.99910 | -97.75801 | 22531 ft | 387 kts | 282° |
| 2026-05-01 14:30 | 33.03225 | -97.84823 | 24054 ft | 402 kts | 288° |
| 2026-05-01 14:30 | 33.04400 | -97.87863 | 24535 ft | 405 kts | 288° |
| 2026-05-01 14:30 | 33.05574 | -97.90933 | 24969 ft | 409 kts | 288° |
| 2026-05-01 14:31 | 33.07924 | -97.97172 | 25863 ft | 415 kts | 287° |
| 2026-05-01 14:31 | 33.09102 | -98.00321 | 26346 ft | 417 kts | 287° |
| 2026-05-01 14:31 | 33.10287 | -98.03502 | 26722 ft | 421 kts | 287° |
| 2026-05-01 14:31 | 33.11481 | -98.06711 | 27073 ft | 425 kts | 287° |
| 2026-05-01 14:32 | 33.12277 | -98.08849 | 27325 ft | 427 kts | 286° |
| 2026-05-01 14:32 | 33.13487 | -98.12100 | 27751 ft | 429 kts | 286° |
| 2026-05-01 14:32 | 33.14700 | -98.15359 | 28192 ft | 430 kts | 286° |
| 2026-05-01 14:32 | 33.15916 | -98.18634 | 28569 ft | 433 kts | 286° |
| 2026-05-01 14:33 | 33.17536 | -98.23003 | 29023 ft | 436 kts | 285° |
| 2026-05-01 14:33 | 33.18371 | -98.25253 | 29232 ft | 438 kts | 285° |
| 2026-05-01 14:33 | 33.19608 | -98.28589 | 29541 ft | 440 kts | 285° |
| 2026-05-01 14:33 | 33.20834 | -98.31888 | 29899 ft | 441 kts | 285° |
| 2026-05-01 14:34 | 33.22075 | -98.35233 | 30297 ft | 440 kts | 285° |
| 2026-05-01 14:34 | 33.23312 | -98.38562 | 30772 ft | 437 kts | 285° |
| 2026-05-01 14:34 | 33.24538 | -98.41867 | 31237 ft | 434 kts | 284° |
| 2026-05-01 14:34 | 33.25761 | -98.45167 | 31612 ft | 433 kts | 284° |
| 2026-05-01 14:35 | 33.26976 | -98.48458 | 31927 ft | 433 kts | 284° |
| 2026-05-01 14:35 | 33.28189 | -98.51748 | 32311 ft | 431 kts | 284° |
| 2026-05-01 14:35 | 33.29397 | -98.55024 | 32712 ft | 429 kts | 284° |
| 2026-05-01 14:35 | 33.30597 | -98.58281 | 33077 ft | 427 kts | 284° |
| 2026-05-01 14:36 | 33.31791 | -98.61527 | 33426 ft | 426 kts | 284° |
| 2026-05-01 14:36 | 33.32967 | -98.64728 | 33759 ft | 424 kts | 283° |
| 2026-05-01 14:36 | 33.34149 | -98.67946 | 34127 ft | 422 kts | 283° |
| 2026-05-01 14:36 | 33.35324 | -98.71151 | 34428 ft | 420 kts | 283° |
| 2026-05-01 14:37 | 33.36498 | -98.74358 | 34689 ft | 420 kts | 283° |
| 2026-05-01 14:37 | 33.37667 | -98.77555 | 34966 ft | 419 kts | 283° |
| 2026-05-01 14:37 | 33.38835 | -98.80751 | 35190 ft | 419 kts | 283° |
| 2026-05-01 14:37 | 33.39999 | -98.83937 | 35453 ft | 417 kts | 283° |
| 2026-05-01 14:38 | 33.41158 | -98.87113 | 35712 ft | 416 kts | 283° |
| 2026-05-01 14:38 | 33.42316 | -98.90290 | 35934 ft | 416 kts | 283° |
| 2026-05-01 14:38 | 33.43468 | -98.93445 | 36328 ft | 410 kts | 283° |
| 2026-05-01 14:38 | 33.44602 | -98.96550 | 36774 ft | 405 kts | 283° |
| 2026-05-01 14:39 | 33.45726 | -98.99640 | 37013 ft | 404 kts | 283° |
| 2026-05-01 14:39 | 33.46837 | -99.02706 | 37125 ft | 405 kts | 283° |
| 2026-05-01 14:39 | 33.47968 | -99.05834 | 37229 ft | 406 kts | 283° |
| 2026-05-01 14:39 | 33.49095 | -99.08947 | 37384 ft | 407 kts | 283° |
| 2026-05-01 14:40 | 33.50206 | -99.12015 | 37525 ft | 406 kts | 283° |
| 2026-05-01 14:40 | 33.51328 | -99.15117 | 37674 ft | 406 kts | 284° |
| 2026-05-01 14:40 | 33.52450 | -99.18217 | 37797 ft | 406 kts | 283° |
| 2026-05-01 14:41 | 33.54699 | -99.24452 | 37907 ft | 408 kts | 283° |
| 2026-05-01 14:41 | 33.56957 | -99.30719 | 38050 ft | 410 kts | 284° |
| 2026-05-01 14:42 | 33.61708 | -99.43521 | 38120 ft | 425 kts | 292° |
| 2026-05-01 14:42 | 33.63591 | -99.46343 | 38150 ft | 439 kts | 301° |
| 2026-05-01 14:43 | 33.65668 | -99.49035 | 38132 ft | 439 kts | 301° |
| 2026-05-01 14:43 | 33.69764 | -99.54498 | 38141 ft | 440 kts | 300° |